sensor_id;sensor_type;location;lat;lon;timestamp;temperature;humidity
5508;DHT22;2776;51.046;6.772;2023-09-19T00:00:15;16.30;99.90
5508;DHT22;2776;51.046;6.772;2023-09-19T00:02:46;16.40;99.90
5508;DHT22;2776;51.046;6.772;2023-09-19T00:05:13;16.30;99.90
5508;DHT22;2776;51.046;6.772;2023-09-19T00:07:40;16.30;99.90
5508;DHT22;2776;51.046;6.772;2023-09-19T00:10:07;16.30;99.90
5508;DHT22;2776;51.046;6.772;2023-09-19T00:12:35;16.30;99.90
5508;DHT22;2776;51.046;6.772;2023-09-19T00:15:02;16.20;99.90
5508;DHT22;2776;51.046;6.772;2023-09-19T00:17:29;16.20;99.90
5508;DHT22;2776;51.046;6.772;2023-09-19T00:19:58;16.30;99.90
5508;DHT22;2776;51.046;6.772;2023-09-19T00:22:32;16.20;99.90
5508;DHT22;2776;51.046;6.772;2023-09-19T00:24:59;16.20;99.90
5508;DHT22;2776;51.046;6.772;2023-09-19T00:27:26;16.20;99.90
5508;DHT22;2776;51.046;6.772;2023-09-19T00:29:53;16.20;99.90
5508;DHT22;2776;51.046;6.772;2023-09-19T00:32:20;16.20;99.90
5508;DHT22;2776;51.046;6.772;2023-09-19T00:34:46;16.20;99.90
5508;DHT22;2776;51.046;6.772;2023-09-19T00:37:14;16.20;99.90
5508;DHT22;2776;51.046;6.772;2023-09-19T00:39:43;16.20;99.90
5508;DHT22;2776;51.046;6.772;2023-09-19T00:42:18;16.20;99.90
5508;DHT22;2776;51.046;6.772;2023-09-19T00:44:46;16.30;99.90
5508;DHT22;2776;51.046;6.772;2023-09-19T00:47:13;16.40;99.90
5508;DHT22;2776;51.046;6.772;2023-09-19T00:49:43;16.40;99.90
5508;DHT22;2776;51.046;6.772;2023-09-19T00:52:10;16.30;99.90
5508;DHT22;2776;51.046;6.772;2023-09-19T00:54:39;16.40;99.90
5508;DHT22;2776;51.046;6.772;2023-09-19T00:57:06;16.40;99.90
5508;DHT22;2776;51.046;6.772;2023-09-19T00:59:33;16.40;99.90
5508;DHT22;2776;51.046;6.772;2023-09-19T01:02:01;16.30;99.90
5508;DHT22;2776;51.046;6.772;2023-09-19T01:04:29;16.40;99.90
5508;DHT22;2776;51.046;6.772;2023-09-19T01:06:55;16.40;99.90
5508;DHT22;2776;51.046;6.772;2023-09-19T01:09:24;16.40;99.90
5508;DHT22;2776;51.046;6.772;2023-09-19T01:11:58;16.40;99.90
5508;DHT22;2776;51.046;6.772;2023-09-19T01:14:34;16.40;99.90
5508;DHT22;2776;51.046;6.772;2023-09-19T01:17:09;16.50;99.90
5508;DHT22;2776;51.046;6.772;2023-09-19T01:20:08;16.50;99.90
5508;DHT22;2776;51.046;6.772;2023-09-19T01:22:46;16.50;99.90
5508;DHT22;2776;51.046;6.772;2023-09-19T01:28:42;16.40;99.90
5508;DHT22;2776;51.046;6.772;2023-09-19T01:31:12;16.30;99.90
5508;DHT22;2776;51.046;6.772;2023-09-19T01:33:56;16.30;99.90
5508;DHT22;2776;51.046;6.772;2023-09-19T01:36:25;16.30;99.90
5508;DHT22;2776;51.046;6.772;2023-09-19T01:38:52;16.30;99.90
5508;DHT22;2776;51.046;6.772;2023-09-19T01:41:26;16.30;99.90
5508;DHT22;2776;51.046;6.772;2023-09-19T01:43:53;16.30;99.90
5508;DHT22;2776;51.046;6.772;2023-09-19T01:46:25;16.30;99.90
5508;DHT22;2776;51.046;6.772;2023-09-19T01:49:00;16.30;99.90
5508;DHT22;2776;51.046;6.772;2023-09-19T01:51:34;16.30;99.90
5508;DHT22;2776;51.046;6.772;2023-09-19T01:54:11;16.30;99.90
5508;DHT22;2776;51.046;6.772;2023-09-19T01:56:50;16.30;99.90
5508;DHT22;2776;51.046;6.772;2023-09-19T01:59:24;16.30;99.90
5508;DHT22;2776;51.046;6.772;2023-09-19T02:01:54;16.20;99.90
5508;DHT22;2776;51.046;6.772;2023-09-19T02:04:22;16.20;99.90
5508;DHT22;2776;51.046;6.772;2023-09-19T02:06:48;16.20;99.90
5508;DHT22;2776;51.046;6.772;2023-09-19T02:09:17;16.20;99.90
5508;DHT22;2776;51.046;6.772;2023-09-19T02:11:43;16.20;99.90
5508;DHT22;2776;51.046;6.772;2023-09-19T02:14:10;16.20;99.90
5508;DHT22;2776;51.046;6.772;2023-09-19T02:16:37;16.10;99.90
5508;DHT22;2776;51.046;6.772;2023-09-19T02:19:05;16.10;99.90
5508;DHT22;2776;51.046;6.772;2023-09-19T02:21:32;16.10;99.90
5508;DHT22;2776;51.046;6.772;2023-09-19T02:23:59;16.00;99.90
5508;DHT22;2776;51.046;6.772;2023-09-19T02:26:25;16.00;99.90
5508;DHT22;2776;51.046;6.772;2023-09-19T02:28:52;16.00;99.90
5508;DHT22;2776;51.046;6.772;2023-09-19T02:31:19;16.00;99.90
5508;DHT22;2776;51.046;6.772;2023-09-19T02:33:46;16.00;99.90
5508;DHT22;2776;51.046;6.772;2023-09-19T02:36:14;15.90;99.90
5508;DHT22;2776;51.046;6.772;2023-09-19T02:38:42;15.90;99.90
5508;DHT22;2776;51.046;6.772;2023-09-19T02:41:09;15.90;99.90
5508;DHT22;2776;51.046;6.772;2023-09-19T02:43:36;15.90;99.90
5508;DHT22;2776;51.046;6.772;2023-09-19T02:46:03;15.80;99.90
5508;DHT22;2776;51.046;6.772;2023-09-19T02:48:30;15.80;99.90
5508;DHT22;2776;51.046;6.772;2023-09-19T02:50:57;15.80;99.90
5508;DHT22;2776;51.046;6.772;2023-09-19T02:53:25;15.80;99.90
5508;DHT22;2776;51.046;6.772;2023-09-19T02:55:52;15.80;99.90
5508;DHT22;2776;51.046;6.772;2023-09-19T02:58:19;15.70;99.90
5508;DHT22;2776;51.046;6.772;2023-09-19T03:00:46;15.70;99.90
5508;DHT22;2776;51.046;6.772;2023-09-19T03:03:15;15.60;99.90
5508;DHT22;2776;51.046;6.772;2023-09-19T03:05:42;15.70;99.90
5508;DHT22;2776;51.046;6.772;2023-09-19T03:08:12;15.60;99.90
5508;DHT22;2776;51.046;6.772;2023-09-19T03:10:41;15.60;99.90
5508;DHT22;2776;51.046;6.772;2023-09-19T03:13:08;15.60;99.90
5508;DHT22;2776;51.046;6.772;2023-09-19T03:15:36;15.60;99.90
5508;DHT22;2776;51.046;6.772;2023-09-19T03:18:04;15.50;99.90
5508;DHT22;2776;51.046;6.772;2023-09-19T03:20:31;15.50;99.90
5508;DHT22;2776;51.046;6.772;2023-09-19T03:22:58;15.40;99.90
5508;DHT22;2776;51.046;6.772;2023-09-19T03:25:25;15.40;99.90
5508;DHT22;2776;51.046;6.772;2023-09-19T03:27:56;15.40;99.90
5508;DHT22;2776;51.046;6.772;2023-09-19T03:30:23;15.40;99.90
5508;DHT22;2776;51.046;6.772;2023-09-19T03:32:50;15.30;99.90
5508;DHT22;2776;51.046;6.772;2023-09-19T03:35:17;15.30;99.90
5508;DHT22;2776;51.046;6.772;2023-09-19T03:37:44;15.30;99.90
5508;DHT22;2776;51.046;6.772;2023-09-19T03:40:11;15.30;99.90
5508;DHT22;2776;51.046;6.772;2023-09-19T03:42:39;15.30;99.90
5508;DHT22;2776;51.046;6.772;2023-09-19T03:45:09;15.30;99.90
5508;DHT22;2776;51.046;6.772;2023-09-19T03:47:37;15.30;99.90
5508;DHT22;2776;51.046;6.772;2023-09-19T03:50:05;15.30;99.90
5508;DHT22;2776;51.046;6.772;2023-09-19T03:52:32;15.30;99.90
5508;DHT22;2776;51.046;6.772;2023-09-19T03:54:59;15.30;99.90
5508;DHT22;2776;51.046;6.772;2023-09-19T03:57:28;15.30;99.90
5508;DHT22;2776;51.046;6.772;2023-09-19T03:59:54;15.30;99.90
5508;DHT22;2776;51.046;6.772;2023-09-19T04:02:22;15.30;99.90
5508;DHT22;2776;51.046;6.772;2023-09-19T04:04:50;15.20;99.90
5508;DHT22;2776;51.046;6.772;2023-09-19T04:07:17;15.20;99.90
5508;DHT22;2776;51.046;6.772;2023-09-19T04:09:44;15.20;99.90
5508;DHT22;2776;51.046;6.772;2023-09-19T04:12:11;15.20;99.90
5508;DHT22;2776;51.046;6.772;2023-09-19T04:14:38;15.20;99.90
5508;DHT22;2776;51.046;6.772;2023-09-19T04:17:05;15.20;99.90
5508;DHT22;2776;51.046;6.772;2023-09-19T04:19:33;15.20;99.90
5508;DHT22;2776;51.046;6.772;2023-09-19T04:22:00;15.10;99.90
5508;DHT22;2776;51.046;6.772;2023-09-19T04:24:26;15.10;99.90
5508;DHT22;2776;51.046;6.772;2023-09-19T04:26:53;15.10;99.90
5508;DHT22;2776;51.046;6.772;2023-09-19T04:29:20;15.10;99.90
5508;DHT22;2776;51.046;6.772;2023-09-19T04:31:46;15.20;99.90
5508;DHT22;2776;51.046;6.772;2023-09-19T04:34:13;15.10;99.90
5508;DHT22;2776;51.046;6.772;2023-09-19T04:36:44;15.20;99.90
5508;DHT22;2776;51.046;6.772;2023-09-19T04:39:11;15.20;99.90
5508;DHT22;2776;51.046;6.772;2023-09-19T04:41:38;15.20;99.90
5508;DHT22;2776;51.046;6.772;2023-09-19T04:44:07;15.30;99.90
5508;DHT22;2776;51.046;6.772;2023-09-19T04:46:34;15.20;99.90
5508;DHT22;2776;51.046;6.772;2023-09-19T04:49:01;15.20;99.90
5508;DHT22;2776;51.046;6.772;2023-09-19T04:51:28;15.30;99.90
5508;DHT22;2776;51.046;6.772;2023-09-19T04:54:01;15.30;99.90
5508;DHT22;2776;51.046;6.772;2023-09-19T04:56:28;15.20;99.90
5508;DHT22;2776;51.046;6.772;2023-09-19T04:58:55;15.20;99.90
5508;DHT22;2776;51.046;6.772;2023-09-19T05:01:23;15.20;99.90
5508;DHT22;2776;51.046;6.772;2023-09-19T05:03:50;15.20;99.90
5508;DHT22;2776;51.046;6.772;2023-09-19T05:06:18;15.20;99.90
5508;DHT22;2776;51.046;6.772;2023-09-19T05:08:46;15.10;99.90
5508;DHT22;2776;51.046;6.772;2023-09-19T05:11:16;15.10;99.90
5508;DHT22;2776;51.046;6.772;2023-09-19T05:13:43;15.10;99.90
5508;DHT22;2776;51.046;6.772;2023-09-19T05:16:10;15.10;99.90
5508;DHT22;2776;51.046;6.772;2023-09-19T05:18:37;15.00;99.90
5508;DHT22;2776;51.046;6.772;2023-09-19T05:21:05;15.00;99.90
5508;DHT22;2776;51.046;6.772;2023-09-19T05:23:31;15.00;99.90
5508;DHT22;2776;51.046;6.772;2023-09-19T05:25:58;15.10;99.90
5508;DHT22;2776;51.046;6.772;2023-09-19T05:28:26;15.10;99.90
5508;DHT22;2776;51.046;6.772;2023-09-19T05:30:53;15.10;99.90
5508;DHT22;2776;51.046;6.772;2023-09-19T05:33:20;15.10;99.90
5508;DHT22;2776;51.046;6.772;2023-09-19T05:35:48;15.10;99.90
5508;DHT22;2776;51.046;6.772;2023-09-19T05:38:14;15.10;99.90
5508;DHT22;2776;51.046;6.772;2023-09-19T05:40:44;15.20;99.90
5508;DHT22;2776;51.046;6.772;2023-09-19T05:43:11;15.20;99.90
5508;DHT22;2776;51.046;6.772;2023-09-19T05:45:40;15.20;99.90
5508;DHT22;2776;51.046;6.772;2023-09-19T05:48:09;15.20;99.90
5508;DHT22;2776;51.046;6.772;2023-09-19T05:50:36;15.20;99.90
5508;DHT22;2776;51.046;6.772;2023-09-19T05:53:03;15.30;99.90
5508;DHT22;2776;51.046;6.772;2023-09-19T05:55:30;15.30;99.90
5508;DHT22;2776;51.046;6.772;2023-09-19T05:57:57;15.30;99.90
5508;DHT22;2776;51.046;6.772;2023-09-19T06:00:25;15.40;99.90
5508;DHT22;2776;51.046;6.772;2023-09-19T06:02:55;15.40;99.90
5508;DHT22;2776;51.046;6.772;2023-09-19T06:05:23;15.50;99.90
5508;DHT22;2776;51.046;6.772;2023-09-19T06:07:50;15.50;99.90
5508;DHT22;2776;51.046;6.772;2023-09-19T06:10:18;15.50;99.90
5508;DHT22;2776;51.046;6.772;2023-09-19T06:12:46;15.60;99.90
5508;DHT22;2776;51.046;6.772;2023-09-19T06:15:14;15.60;99.90
5508;DHT22;2776;51.046;6.772;2023-09-19T06:17:42;15.70;99.90
5508;DHT22;2776;51.046;6.772;2023-09-19T06:20:11;15.70;99.90
5508;DHT22;2776;51.046;6.772;2023-09-19T06:22:40;15.70;99.90
5508;DHT22;2776;51.046;6.772;2023-09-19T06:25:08;15.80;99.90
5508;DHT22;2776;51.046;6.772;2023-09-19T06:27:37;15.80;99.90
5508;DHT22;2776;51.046;6.772;2023-09-19T06:30:05;15.90;99.90
5508;DHT22;2776;51.046;6.772;2023-09-19T06:32:33;15.80;99.90
5508;DHT22;2776;51.046;6.772;2023-09-19T06:34:59;15.90;99.90
5508;DHT22;2776;51.046;6.772;2023-09-19T06:37:29;15.90;99.90
5508;DHT22;2776;51.046;6.772;2023-09-19T06:39:57;15.90;99.90
5508;DHT22;2776;51.046;6.772;2023-09-19T06:42:23;15.90;99.90
5508;DHT22;2776;51.046;6.772;2023-09-19T06:44:50;15.90;99.90
5508;DHT22;2776;51.046;6.772;2023-09-19T06:47:17;15.90;99.90
5508;DHT22;2776;51.046;6.772;2023-09-19T06:49:43;16.00;99.90
5508;DHT22;2776;51.046;6.772;2023-09-19T06:52:10;16.00;99.90
5508;DHT22;2776;51.046;6.772;2023-09-19T06:54:38;16.10;99.90
5508;DHT22;2776;51.046;6.772;2023-09-19T06:57:05;16.10;99.90
5508;DHT22;2776;51.046;6.772;2023-09-19T06:59:35;16.20;99.90
5508;DHT22;2776;51.046;6.772;2023-09-19T07:02:02;16.20;99.90
5508;DHT22;2776;51.046;6.772;2023-09-19T07:04:31;16.20;99.90
5508;DHT22;2776;51.046;6.772;2023-09-19T07:06:58;16.30;99.90
5508;DHT22;2776;51.046;6.772;2023-09-19T07:09:25;16.40;99.90
5508;DHT22;2776;51.046;6.772;2023-09-19T07:11:54;16.40;99.90
5508;DHT22;2776;51.046;6.772;2023-09-19T07:14:21;16.50;99.90
5508;DHT22;2776;51.046;6.772;2023-09-19T07:16:48;16.40;99.90
5508;DHT22;2776;51.046;6.772;2023-09-19T07:19:15;16.50;99.90
5508;DHT22;2776;51.046;6.772;2023-09-19T07:21:41;16.60;99.90
5508;DHT22;2776;51.046;6.772;2023-09-19T07:24:08;16.60;99.90
5508;DHT22;2776;51.046;6.772;2023-09-19T07:26:35;16.60;99.90
5508;DHT22;2776;51.046;6.772;2023-09-19T07:29:03;16.70;99.90
5508;DHT22;2776;51.046;6.772;2023-09-19T07:31:30;16.80;99.90
5508;DHT22;2776;51.046;6.772;2023-09-19T07:33:57;16.80;99.90
5508;DHT22;2776;51.046;6.772;2023-09-19T07:36:24;16.90;99.90
5508;DHT22;2776;51.046;6.772;2023-09-19T07:38:50;16.90;99.90
5508;DHT22;2776;51.046;6.772;2023-09-19T07:41:17;17.00;99.90
5508;DHT22;2776;51.046;6.772;2023-09-19T07:43:44;17.10;99.90
5508;DHT22;2776;51.046;6.772;2023-09-19T07:46:12;17.20;99.90
5508;DHT22;2776;51.046;6.772;2023-09-19T07:48:38;17.30;99.90
5508;DHT22;2776;51.046;6.772;2023-09-19T07:51:08;17.30;99.90
5508;DHT22;2776;51.046;6.772;2023-09-19T07:53:35;17.50;99.90
5508;DHT22;2776;51.046;6.772;2023-09-19T07:56:04;17.60;99.90
5508;DHT22;2776;51.046;6.772;2023-09-19T07:58:31;17.70;99.90
5508;DHT22;2776;51.046;6.772;2023-09-19T08:01:03;17.70;99.90
5508;DHT22;2776;51.046;6.772;2023-09-19T08:03:31;17.80;99.90
5508;DHT22;2776;51.046;6.772;2023-09-19T08:05:58;17.80;99.90
5508;DHT22;2776;51.046;6.772;2023-09-19T08:08:24;17.80;99.90
5508;DHT22;2776;51.046;6.772;2023-09-19T08:10:53;17.80;99.90
5508;DHT22;2776;51.046;6.772;2023-09-19T08:13:21;17.80;99.90
5508;DHT22;2776;51.046;6.772;2023-09-19T08:15:48;17.90;99.90
5508;DHT22;2776;51.046;6.772;2023-09-19T08:18:15;18.00;99.90
5508;DHT22;2776;51.046;6.772;2023-09-19T08:20:49;17.90;99.90
5508;DHT22;2776;51.046;6.772;2023-09-19T08:23:16;17.90;99.90
5508;DHT22;2776;51.046;6.772;2023-09-19T08:25:43;17.90;99.90
5508;DHT22;2776;51.046;6.772;2023-09-19T08:28:10;17.90;99.90
5508;DHT22;2776;51.046;6.772;2023-09-19T08:30:39;17.90;99.90
5508;DHT22;2776;51.046;6.772;2023-09-19T08:33:06;18.00;99.90
5508;DHT22;2776;51.046;6.772;2023-09-19T08:35:33;18.10;99.90
5508;DHT22;2776;51.046;6.772;2023-09-19T08:38:02;18.20;99.90
5508;DHT22;2776;51.046;6.772;2023-09-19T08:40:30;18.30;99.90
5508;DHT22;2776;51.046;6.772;2023-09-19T08:42:59;18.50;99.90
5508;DHT22;2776;51.046;6.772;2023-09-19T08:45:26;18.70;99.90
5508;DHT22;2776;51.046;6.772;2023-09-19T08:48:12;18.70;99.90
5508;DHT22;2776;51.046;6.772;2023-09-19T08:50:47;18.60;99.90
5508;DHT22;2776;51.046;6.772;2023-09-19T08:53:21;18.70;99.90
5508;DHT22;2776;51.046;6.772;2023-09-19T08:55:51;18.90;99.90
5508;DHT22;2776;51.046;6.772;2023-09-19T08:58:20;18.90;99.90
5508;DHT22;2776;51.046;6.772;2023-09-19T09:00:51;18.90;99.90
5508;DHT22;2776;51.046;6.772;2023-09-19T09:03:20;19.00;99.90
5508;DHT22;2776;51.046;6.772;2023-09-19T09:05:48;19.30;99.90
5508;DHT22;2776;51.046;6.772;2023-09-19T09:08:19;19.50;99.90
5508;DHT22;2776;51.046;6.772;2023-09-19T09:10:47;19.50;99.90
5508;DHT22;2776;51.046;6.772;2023-09-19T09:13:14;19.40;99.90
5508;DHT22;2776;51.046;6.772;2023-09-19T09:15:41;19.40;99.90
5508;DHT22;2776;51.046;6.772;2023-09-19T09:18:10;19.50;99.90
5508;DHT22;2776;51.046;6.772;2023-09-19T09:20:37;19.60;99.90
5508;DHT22;2776;51.046;6.772;2023-09-19T09:23:04;19.60;99.90
5508;DHT22;2776;51.046;6.772;2023-09-19T09:25:48;19.80;99.90
5508;DHT22;2776;51.046;6.772;2023-09-19T09:28:20;19.90;99.90
5508;DHT22;2776;51.046;6.772;2023-09-19T09:30:47;19.80;99.90
5508;DHT22;2776;51.046;6.772;2023-09-19T09:33:14;19.90;99.90
5508;DHT22;2776;51.046;6.772;2023-09-19T09:35:52;19.90;99.90
5508;DHT22;2776;51.046;6.772;2023-09-19T09:38:22;19.80;99.90
5508;DHT22;2776;51.046;6.772;2023-09-19T09:40:55;19.80;99.90
5508;DHT22;2776;51.046;6.772;2023-09-19T09:43:31;19.90;99.90
5508;DHT22;2776;51.046;6.772;2023-09-19T09:46:10;19.70;99.90
5508;DHT22;2776;51.046;6.772;2023-09-19T09:49:05;19.80;99.90
5508;DHT22;2776;51.046;6.772;2023-09-19T09:51:44;20.00;99.90
5508;DHT22;2776;51.046;6.772;2023-09-19T09:54:15;20.10;99.90
5508;DHT22;2776;51.046;6.772;2023-09-19T09:56:57;20.00;99.90
5508;DHT22;2776;51.046;6.772;2023-09-19T09:59:44;20.00;99.90
5508;DHT22;2776;51.046;6.772;2023-09-19T10:02:13;19.90;99.90
5508;DHT22;2776;51.046;6.772;2023-09-19T10:04:42;19.80;99.90
5508;DHT22;2776;51.046;6.772;2023-09-19T10:07:25;19.90;99.90
5508;DHT22;2776;51.046;6.772;2023-09-19T10:09:53;19.90;99.90
5508;DHT22;2776;51.046;6.772;2023-09-19T10:12:27;19.90;99.90
5508;DHT22;2776;51.046;6.772;2023-09-19T10:14:57;20.00;99.90
5508;DHT22;2776;51.046;6.772;2023-09-19T10:17:26;20.00;99.90
5508;DHT22;2776;51.046;6.772;2023-09-19T10:19:56;20.10;99.90
5508;DHT22;2776;51.046;6.772;2023-09-19T10:22:25;20.10;99.90
5508;DHT22;2776;51.046;6.772;2023-09-19T10:24:53;20.00;99.90
5508;DHT22;2776;51.046;6.772;2023-09-19T10:27:21;19.90;99.90
5508;DHT22;2776;51.046;6.772;2023-09-19T10:29:54;19.80;99.90
5508;DHT22;2776;51.046;6.772;2023-09-19T10:32:22;19.60;99.90
5508;DHT22;2776;51.046;6.772;2023-09-19T10:34:49;19.60;99.90
5508;DHT22;2776;51.046;6.772;2023-09-19T10:37:16;19.70;99.90
5508;DHT22;2776;51.046;6.772;2023-09-19T10:39:46;19.70;99.90
5508;DHT22;2776;51.046;6.772;2023-09-19T10:42:18;19.60;99.90
5508;DHT22;2776;51.046;6.772;2023-09-19T10:44:46;19.60;99.90
5508;DHT22;2776;51.046;6.772;2023-09-19T10:47:16;19.80;99.90
5508;DHT22;2776;51.046;6.772;2023-09-19T10:49:44;19.80;99.90
5508;DHT22;2776;51.046;6.772;2023-09-19T10:52:13;19.90;99.90
5508;DHT22;2776;51.046;6.772;2023-09-19T10:54:46;19.90;99.90
5508;DHT22;2776;51.046;6.772;2023-09-19T10:57:19;20.00;99.90
5508;DHT22;2776;51.046;6.772;2023-09-19T11:00:00;20.10;99.90
5508;DHT22;2776;51.046;6.772;2023-09-19T11:03:18;20.00;99.90
5508;DHT22;2776;51.046;6.772;2023-09-19T11:06:10;20.00;99.90
5508;DHT22;2776;51.046;6.772;2023-09-19T11:08:55;20.00;99.90
5508;DHT22;2776;51.046;6.772;2023-09-19T11:11:44;20.00;99.90
5508;DHT22;2776;51.046;6.772;2023-09-19T11:14:41;20.10;99.90
5508;DHT22;2776;51.046;6.772;2023-09-19T11:17:33;20.10;99.90
5508;DHT22;2776;51.046;6.772;2023-09-19T11:20:24;20.10;99.90
5508;DHT22;2776;51.046;6.772;2023-09-19T11:23:18;20.20;99.90
5508;DHT22;2776;51.046;6.772;2023-09-19T11:25:49;20.30;99.90
5508;DHT22;2776;51.046;6.772;2023-09-19T11:28:34;20.30;99.90
5508;DHT22;2776;51.046;6.772;2023-09-19T11:31:41;20.30;99.90
5508;DHT22;2776;51.046;6.772;2023-09-19T11:34:42;20.50;99.90
5508;DHT22;2776;51.046;6.772;2023-09-19T11:40:37;20.50;99.90
5508;DHT22;2776;51.046;6.772;2023-09-19T11:43:29;20.50;99.90
5508;DHT22;2776;51.046;6.772;2023-09-19T11:46:02;20.50;99.90
5508;DHT22;2776;51.046;6.772;2023-09-19T11:48:32;20.40;99.90
5508;DHT22;2776;51.046;6.772;2023-09-19T11:51:00;20.50;99.90
5508;DHT22;2776;51.046;6.772;2023-09-19T11:53:33;20.50;99.90
5508;DHT22;2776;51.046;6.772;2023-09-19T11:56:05;20.60;99.90
5508;DHT22;2776;51.046;6.772;2023-09-19T11:58:36;20.60;99.90
5508;DHT22;2776;51.046;6.772;2023-09-19T12:01:05;20.60;99.90
5508;DHT22;2776;51.046;6.772;2023-09-19T12:03:36;20.60;99.90
5508;DHT22;2776;51.046;6.772;2023-09-19T12:06:11;20.50;99.90
5508;DHT22;2776;51.046;6.772;2023-09-19T12:08:40;20.50;99.90
5508;DHT22;2776;51.046;6.772;2023-09-19T12:11:12;20.50;99.90
5508;DHT22;2776;51.046;6.772;2023-09-19T12:13:42;20.50;99.90
5508;DHT22;2776;51.046;6.772;2023-09-19T12:16:15;20.50;99.90
5508;DHT22;2776;51.046;6.772;2023-09-19T12:18:43;20.50;99.90
5508;DHT22;2776;51.046;6.772;2023-09-19T12:21:22;20.30;99.90
5508;DHT22;2776;51.046;6.772;2023-09-19T12:23:58;20.40;99.90
5508;DHT22;2776;51.046;6.772;2023-09-19T12:26:26;20.40;99.90
5508;DHT22;2776;51.046;6.772;2023-09-19T12:28:54;20.30;99.90
5508;DHT22;2776;51.046;6.772;2023-09-19T12:31:21;20.40;99.90
5508;DHT22;2776;51.046;6.772;2023-09-19T12:33:53;20.40;99.90
5508;DHT22;2776;51.046;6.772;2023-09-19T12:36:21;20.40;99.90
5508;DHT22;2776;51.046;6.772;2023-09-19T12:38:50;20.50;99.90
5508;DHT22;2776;51.046;6.772;2023-09-19T12:41:19;20.40;99.90
5508;DHT22;2776;51.046;6.772;2023-09-19T12:43:47;20.50;99.90
5508;DHT22;2776;51.046;6.772;2023-09-19T12:46:14;20.60;99.90
5508;DHT22;2776;51.046;6.772;2023-09-19T12:48:45;20.70;99.90
5508;DHT22;2776;51.046;6.772;2023-09-19T12:51:13;20.70;99.90
5508;DHT22;2776;51.046;6.772;2023-09-19T12:53:42;20.90;99.90
5508;DHT22;2776;51.046;6.772;2023-09-19T12:56:11;21.00;99.90
5508;DHT22;2776;51.046;6.772;2023-09-19T12:58:51;21.00;99.90
5508;DHT22;2776;51.046;6.772;2023-09-19T13:01:20;21.10;99.90
5508;DHT22;2776;51.046;6.772;2023-09-19T13:04:12;21.20;99.90
5508;DHT22;2776;51.046;6.772;2023-09-19T13:06:40;21.10;99.90
5508;DHT22;2776;51.046;6.772;2023-09-19T13:09:09;21.20;99.90
5508;DHT22;2776;51.046;6.772;2023-09-19T13:11:37;21.10;99.90
5508;DHT22;2776;51.046;6.772;2023-09-19T13:14:18;21.10;99.90
5508;DHT22;2776;51.046;6.772;2023-09-19T13:16:59;21.10;99.90
5508;DHT22;2776;51.046;6.772;2023-09-19T13:19:40;21.10;99.90
5508;DHT22;2776;51.046;6.772;2023-09-19T13:22:37;21.30;99.90
5508;DHT22;2776;51.046;6.772;2023-09-19T13:25:05;21.20;99.90
5508;DHT22;2776;51.046;6.772;2023-09-19T13:27:33;21.20;99.90
5508;DHT22;2776;51.046;6.772;2023-09-19T13:30:01;21.10;99.90
5508;DHT22;2776;51.046;6.772;2023-09-19T13:32:28;21.00;99.90
5508;DHT22;2776;51.046;6.772;2023-09-19T13:34:55;21.00;99.90
5508;DHT22;2776;51.046;6.772;2023-09-19T13:37:21;20.90;99.90
5508;DHT22;2776;51.046;6.772;2023-09-19T13:39:48;21.10;99.90
5508;DHT22;2776;51.046;6.772;2023-09-19T13:42:15;21.20;99.90
5508;DHT22;2776;51.046;6.772;2023-09-19T13:44:44;21.20;99.90
5508;DHT22;2776;51.046;6.772;2023-09-19T13:47:12;21.30;99.90
5508;DHT22;2776;51.046;6.772;2023-09-19T13:49:40;21.40;99.90
5508;DHT22;2776;51.046;6.772;2023-09-19T13:52:08;21.50;99.90
5508;DHT22;2776;51.046;6.772;2023-09-19T13:54:36;21.50;99.90
5508;DHT22;2776;51.046;6.772;2023-09-19T13:57:03;21.50;99.90
5508;DHT22;2776;51.046;6.772;2023-09-19T13:59:30;21.50;99.90
5508;DHT22;2776;51.046;6.772;2023-09-19T14:01:57;21.40;99.90
5508;DHT22;2776;51.046;6.772;2023-09-19T14:04:25;21.50;99.90
5508;DHT22;2776;51.046;6.772;2023-09-19T14:06:54;21.40;99.90
5508;DHT22;2776;51.046;6.772;2023-09-19T14:09:22;21.30;99.90
5508;DHT22;2776;51.046;6.772;2023-09-19T14:11:50;21.20;99.90
5508;DHT22;2776;51.046;6.772;2023-09-19T14:14:18;21.20;99.90
5508;DHT22;2776;51.046;6.772;2023-09-19T14:16:44;21.20;99.90
5508;DHT22;2776;51.046;6.772;2023-09-19T14:19:11;21.20;99.90
5508;DHT22;2776;51.046;6.772;2023-09-19T14:21:40;21.10;99.90
5508;DHT22;2776;51.046;6.772;2023-09-19T14:24:08;21.10;99.90
5508;DHT22;2776;51.046;6.772;2023-09-19T14:26:35;21.20;99.90
5508;DHT22;2776;51.046;6.772;2023-09-19T14:29:02;21.20;99.90
5508;DHT22;2776;51.046;6.772;2023-09-19T14:31:29;21.00;99.90
5508;DHT22;2776;51.046;6.772;2023-09-19T14:33:56;20.90;99.90
5508;DHT22;2776;51.046;6.772;2023-09-19T14:36:22;20.90;99.90
5508;DHT22;2776;51.046;6.772;2023-09-19T14:38:52;20.80;99.90
5508;DHT22;2776;51.046;6.772;2023-09-19T14:41:20;20.80;99.90
5508;DHT22;2776;51.046;6.772;2023-09-19T14:43:48;20.80;99.90
5508;DHT22;2776;51.046;6.772;2023-09-19T14:46:15;20.90;99.90
5508;DHT22;2776;51.046;6.772;2023-09-19T14:48:41;20.80;99.90
5508;DHT22;2776;51.046;6.772;2023-09-19T14:51:09;20.70;99.90
5508;DHT22;2776;51.046;6.772;2023-09-19T14:53:37;20.80;99.90
5508;DHT22;2776;51.046;6.772;2023-09-19T14:56:07;20.70;99.90
5508;DHT22;2776;51.046;6.772;2023-09-19T14:58:34;20.70;99.90
5508;DHT22;2776;51.046;6.772;2023-09-19T15:01:03;20.60;99.90
5508;DHT22;2776;51.046;6.772;2023-09-19T15:03:30;20.50;99.90
5508;DHT22;2776;51.046;6.772;2023-09-19T15:05:59;20.40;99.90
5508;DHT22;2776;51.046;6.772;2023-09-19T15:08:26;20.40;99.90
5508;DHT22;2776;51.046;6.772;2023-09-19T15:10:53;20.40;99.90
5508;DHT22;2776;51.046;6.772;2023-09-19T15:13:22;20.50;99.90
5508;DHT22;2776;51.046;6.772;2023-09-19T15:15:57;20.50;99.90
5508;DHT22;2776;51.046;6.772;2023-09-19T15:18:24;20.40;99.90
5508;DHT22;2776;51.046;6.772;2023-09-19T15:20:51;20.40;99.90
5508;DHT22;2776;51.046;6.772;2023-09-19T15:23:17;20.40;99.90
5508;DHT22;2776;51.046;6.772;2023-09-19T15:25:47;20.30;99.90
5508;DHT22;2776;51.046;6.772;2023-09-19T15:28:14;20.30;99.90
5508;DHT22;2776;51.046;6.772;2023-09-19T15:30:42;20.20;99.90
5508;DHT22;2776;51.046;6.772;2023-09-19T15:33:09;20.20;99.90
5508;DHT22;2776;51.046;6.772;2023-09-19T15:35:37;20.20;99.90
5508;DHT22;2776;51.046;6.772;2023-09-19T15:38:04;20.20;99.90
5508;DHT22;2776;51.046;6.772;2023-09-19T15:40:31;20.20;99.90
5508;DHT22;2776;51.046;6.772;2023-09-19T15:42:57;20.20;99.90
5508;DHT22;2776;51.046;6.772;2023-09-19T15:45:24;20.10;99.90
5508;DHT22;2776;51.046;6.772;2023-09-19T15:47:53;20.20;99.90
5508;DHT22;2776;51.046;6.772;2023-09-19T15:50:20;20.20;99.90
5508;DHT22;2776;51.046;6.772;2023-09-19T15:52:52;20.20;99.90
5508;DHT22;2776;51.046;6.772;2023-09-19T15:55:20;20.10;99.90
5508;DHT22;2776;51.046;6.772;2023-09-19T15:57:47;20.10;99.90
5508;DHT22;2776;51.046;6.772;2023-09-19T16:00:14;20.20;99.90
5508;DHT22;2776;51.046;6.772;2023-09-19T16:02:42;20.20;99.90
5508;DHT22;2776;51.046;6.772;2023-09-19T16:05:14;20.20;99.90
5508;DHT22;2776;51.046;6.772;2023-09-19T16:07:40;20.30;99.90
5508;DHT22;2776;51.046;6.772;2023-09-19T16:10:07;20.30;99.90
5508;DHT22;2776;51.046;6.772;2023-09-19T16:12:34;20.30;99.90
5508;DHT22;2776;51.046;6.772;2023-09-19T16:15:03;20.30;99.90
5508;DHT22;2776;51.046;6.772;2023-09-19T16:17:30;20.30;99.90
5508;DHT22;2776;51.046;6.772;2023-09-19T16:19:56;20.30;99.90
5508;DHT22;2776;51.046;6.772;2023-09-19T16:22:24;20.20;99.90
5508;DHT22;2776;51.046;6.772;2023-09-19T16:24:52;20.10;99.90